sensor_id;sensor_type;location;lat;lon;timestamp;P1;durP1;ratioP1;P2;durP2;ratioP2
45940;SDS011;31858;46.008;8.978;2024-03-06T00:03:19;0.20;;;0.20;;
45940;SDS011;31858;46.008;8.978;2024-03-06T00:13:22;2.28;;;0.20;;
45940;SDS011;31858;46.008;8.978;2024-03-06T00:23:23;5.60;;;0.30;;
45940;SDS011;31858;46.008;8.978;2024-03-06T00:33:26;0.30;;;0.25;;
45940;SDS011;31858;46.008;8.978;2024-03-06T00:43:27;0.20;;;0.20;;
45940;SDS011;31858;46.008;8.978;2024-03-06T00:53:30;0.10;;;0.10;;
45940;SDS011;31858;46.008;8.978;2024-03-06T01:03:32;0.20;;;0.20;;
45940;SDS011;31858;46.008;8.978;2024-03-06T01:13:35;0.38;;;0.38;;
45940;SDS011;31858;46.008;8.978;2024-03-06T01:23:36;1.00;;;0.30;;
45940;SDS011;31858;46.008;8.978;2024-03-06T01:33:39;0.28;;;0.28;;
45940;SDS011;31858;46.008;8.978;2024-03-06T01:43:41;0.30;;;0.30;;
45940;SDS011;31858;46.008;8.978;2024-03-06T01:53:44;0.10;;;0.10;;
45940;SDS011;31858;46.008;8.978;2024-03-06T02:03:46;0.40;;;0.20;;
45940;SDS011;31858;46.008;8.978;2024-03-06T02:13:50;0.30;;;0.30;;
45940;SDS011;31858;46.008;8.978;2024-03-06T02:23:53;0.15;;;0.15;;
45940;SDS011;31858;46.008;8.978;2024-03-06T02:33:54;0.20;;;0.10;;
45940;SDS011;31858;46.008;8.978;2024-03-06T02:43:58;0.10;;;0.10;;
45940;SDS011;31858;46.008;8.978;2024-03-06T02:54:00;0.43;;;0.40;;
45940;SDS011;31858;46.008;8.978;2024-03-06T03:04:03;0.10;;;0.10;;
45940;SDS011;31858;46.008;8.978;2024-03-06T03:14:06;1.08;;;0.10;;
45940;SDS011;31858;46.008;8.978;2024-03-06T03:24:09;0.30;;;0.17;;
45940;SDS011;31858;46.008;8.978;2024-03-06T03:34:11;0.17;;;0.10;;
45940;SDS011;31858;46.008;8.978;2024-03-06T03:44:14;0.10;;;0.10;;
45940;SDS011;31858;46.008;8.978;2024-03-06T03:54:16;0.98;;;0.20;;
45940;SDS011;31858;46.008;8.978;2024-03-06T04:04:19;0.20;;;0.20;;
45940;SDS011;31858;46.008;8.978;2024-03-06T04:14:21;0.30;;;0.30;;
45940;SDS011;31858;46.008;8.978;2024-03-06T04:24:24;0.35;;;0.25;;
45940;SDS011;31858;46.008;8.978;2024-03-06T04:34:26;0.10;;;0.10;;
45940;SDS011;31858;46.008;8.978;2024-03-06T04:44:29;0.10;;;0.10;;
45940;SDS011;31858;46.008;8.978;2024-03-06T04:54:35;0.30;;;0.30;;
45940;SDS011;31858;46.008;8.978;2024-03-06T05:04:39;1.20;;;0.20;;
45940;SDS011;31858;46.008;8.978;2024-03-06T05:14:40;0.10;;;0.10;;
45940;SDS011;31858;46.008;8.978;2024-03-06T05:24:43;0.32;;;0.30;;
45940;SDS011;31858;46.008;8.978;2024-03-06T05:34:45;0.38;;;0.38;;
45940;SDS011;31858;46.008;8.978;2024-03-06T05:44:48;0.68;;;0.40;;
45940;SDS011;31858;46.008;8.978;2024-03-06T05:54:50;0.28;;;0.28;;
45940;SDS011;31858;46.008;8.978;2024-03-06T06:04:53;0.20;;;0.20;;
45940;SDS011;31858;46.008;8.978;2024-03-06T06:14:56;0.25;;;0.20;;
45940;SDS011;31858;46.008;8.978;2024-03-06T06:24:59;0.30;;;0.30;;
45940;SDS011;31858;46.008;8.978;2024-03-06T06:35:00;0.15;;;0.15;;
45940;SDS011;31858;46.008;8.978;2024-03-06T06:45:04;0.63;;;0.63;;
45940;SDS011;31858;46.008;8.978;2024-03-06T06:55:07;1.13;;;0.20;;
45940;SDS011;31858;46.008;8.978;2024-03-06T07:05:12;1.38;;;0.70;;
45940;SDS011;31858;46.008;8.978;2024-03-06T07:15:14;0.50;;;0.40;;
45940;SDS011;31858;46.008;8.978;2024-03-06T07:25:18;0.77;;;0.63;;
45940;SDS011;31858;46.008;8.978;2024-03-06T07:35:20;0.28;;;0.28;;
45940;SDS011;31858;46.008;8.978;2024-03-06T07:45:23;0.20;;;0.20;;
45940;SDS011;31858;46.008;8.978;2024-03-06T07:55:25;0.57;;;0.57;;
45940;SDS011;31858;46.008;8.978;2024-03-06T08:05:28;0.88;;;0.50;;
45940;SDS011;31858;46.008;8.978;2024-03-06T08:15:29;0.45;;;0.40;;
45940;SDS011;31858;46.008;8.978;2024-03-06T08:25:32;0.65;;;0.50;;
45940;SDS011;31858;46.008;8.978;2024-03-06T08:35:34;1.50;;;0.40;;
45940;SDS011;31858;46.008;8.978;2024-03-06T08:45:37;1.00;;;0.70;;
45940;SDS011;31858;46.008;8.978;2024-03-06T08:55:38;0.32;;;0.30;;
45940;SDS011;31858;46.008;8.978;2024-03-06T09:05:41;1.65;;;0.38;;
45940;SDS011;31858;46.008;8.978;2024-03-06T09:15:43;0.60;;;0.60;;
45940;SDS011;31858;46.008;8.978;2024-03-06T09:25:46;0.40;;;0.32;;
45940;SDS011;31858;46.008;8.978;2024-03-06T09:35:48;2.30;;;0.43;;
45940;SDS011;31858;46.008;8.978;2024-03-06T09:45:51;1.13;;;0.32;;
45940;SDS011;31858;46.008;8.978;2024-03-06T09:55:54;0.75;;;0.40;;
45940;SDS011;31858;46.008;8.978;2024-03-06T10:05:58;0.40;;;0.40;;
45940;SDS011;31858;46.008;8.978;2024-03-06T10:16:00;0.50;;;0.40;;
45940;SDS011;31858;46.008;8.978;2024-03-06T10:26:04;2.03;;;0.60;;
45940;SDS011;31858;46.008;8.978;2024-03-06T10:36:09;0.77;;;0.70;;
45940;SDS011;31858;46.008;8.978;2024-03-06T10:46:13;0.93;;;0.60;;
45940;SDS011;31858;46.008;8.978;2024-03-06T10:56:16;0.75;;;0.60;;
45940;SDS011;31858;46.008;8.978;2024-03-06T11:06:21;1.17;;;0.70;;
45940;SDS011;31858;46.008;8.978;2024-03-06T11:16:26;3.05;;;1.48;;
45940;SDS011;31858;46.008;8.978;2024-03-06T11:26:30;1.45;;;0.85;;
45940;SDS011;31858;46.008;8.978;2024-03-06T11:36:36;0.38;;;0.38;;
45940;SDS011;31858;46.008;8.978;2024-03-06T11:46:43;1.13;;;0.60;;
45940;SDS011;31858;46.008;8.978;2024-03-06T11:56:45;1.45;;;0.43;;
45940;SDS011;31858;46.008;8.978;2024-03-06T12:06:48;1.77;;;0.68;;
45940;SDS011;31858;46.008;8.978;2024-03-06T12:16:56;0.13;;;0.10;;
45940;SDS011;31858;46.008;8.978;2024-03-06T12:27:01;0.35;;;0.35;;
45940;SDS011;31858;46.008;8.978;2024-03-06T12:37:09;1.38;;;0.82;;
45940;SDS011;31858;46.008;8.978;2024-03-06T12:47:13;2.20;;;0.70;;
45940;SDS011;31858;46.008;8.978;2024-03-06T12:57:14;1.13;;;0.90;;
45940;SDS011;31858;46.008;8.978;2024-03-06T13:07:17;0.75;;;0.73;;
45940;SDS011;31858;46.008;8.978;2024-03-06T13:17:19;0.77;;;0.77;;
45940;SDS011;31858;46.008;8.978;2024-03-06T13:27:22;0.82;;;0.80;;
45940;SDS011;31858;46.008;8.978;2024-03-06T13:37:24;3.20;;;0.88;;
45940;SDS011;31858;46.008;8.978;2024-03-06T13:47:27;1.20;;;0.98;;
45940;SDS011;31858;46.008;8.978;2024-03-06T13:57:28;1.45;;;1.30;;
45940;SDS011;31858;46.008;8.978;2024-03-06T14:07:31;1.95;;;1.23;;
45940;SDS011;31858;46.008;8.978;2024-03-06T14:17:34;2.72;;;1.48;;
45940;SDS011;31858;46.008;8.978;2024-03-06T14:27:37;2.22;;;2.03;;
45940;SDS011;31858;46.008;8.978;2024-03-06T14:37:39;2.13;;;1.52;;
45940;SDS011;31858;46.008;8.978;2024-03-06T14:47:42;5.07;;;2.00;;
45940;SDS011;31858;46.008;8.978;2024-03-06T14:57:43;3.15;;;2.05;;
45940;SDS011;31858;46.008;8.978;2024-03-06T15:07:46;4.15;;;2.00;;
45940;SDS011;31858;46.008;8.978;2024-03-06T15:17:48;2.70;;;1.85;;
45940;SDS011;31858;46.008;8.978;2024-03-06T15:27:51;3.00;;;1.90;;
45940;SDS011;31858;46.008;8.978;2024-03-06T15:37:53;1.95;;;1.77;;
45940;SDS011;31858;46.008;8.978;2024-03-06T15:47:56;2.83;;;2.08;;
45940;SDS011;31858;46.008;8.978;2024-03-06T15:57:58;4.28;;;2.22;;
45940;SDS011;31858;46.008;8.978;2024-03-06T16:08:00;1.85;;;1.67;;
45940;SDS011;31858;46.008;8.978;2024-03-06T16:18:03;4.93;;;2.38;;
45940;SDS011;31858;46.008;8.978;2024-03-06T16:28:07;3.08;;;1.98;;
45940;SDS011;31858;46.008;8.978;2024-03-06T16:38:08;3.05;;;1.85;;
45940;SDS011;31858;46.008;8.978;2024-03-06T16:48:11;4.53;;;1.98;;
45940;SDS011;31858;46.008;8.978;2024-03-06T16:58:13;4.03;;;1.70;;
45940;SDS011;31858;46.008;8.978;2024-03-06T17:08:16;1.75;;;1.08;;
45940;SDS011;31858;46.008;8.978;2024-03-06T17:18:17;2.80;;;1.58;;
45940;SDS011;31858;46.008;8.978;2024-03-06T17:28:20;4.07;;;2.10;;
45940;SDS011;31858;46.008;8.978;2024-03-06T17:38:24;4.05;;;2.10;;
45940;SDS011;31858;46.008;8.978;2024-03-06T17:48:29;1.83;;;1.50;;
45940;SDS011;31858;46.008;8.978;2024-03-06T17:58:30;4.50;;;1.92;;
45940;SDS011;31858;46.008;8.978;2024-03-06T18:08:33;0.85;;;0.85;;
45940;SDS011;31858;46.008;8.978;2024-03-06T18:18:35;2.75;;;1.75;;
45940;SDS011;31858;46.008;8.978;2024-03-06T18:28:38;2.28;;;1.70;;
45940;SDS011;31858;46.008;8.978;2024-03-06T18:38:40;3.25;;;2.08;;
45940;SDS011;31858;46.008;8.978;2024-03-06T18:48:45;4.97;;;2.20;;
45940;SDS011;31858;46.008;8.978;2024-03-06T18:58:48;5.28;;;1.85;;
45940;SDS011;31858;46.008;8.978;2024-03-06T19:08:51;3.90;;;2.30;;
45940;SDS011;31858;46.008;8.978;2024-03-06T19:18:52;3.30;;;1.95;;
45940;SDS011;31858;46.008;8.978;2024-03-06T19:28:55;1.40;;;1.30;;
45940;SDS011;31858;46.008;8.978;2024-03-06T19:38:57;2.28;;;1.40;;
45940;SDS011;31858;46.008;8.978;2024-03-06T19:49:00;1.38;;;1.27;;
45940;SDS011;31858;46.008;8.978;2024-03-06T19:59:02;1.20;;;1.10;;
45940;SDS011;31858;46.008;8.978;2024-03-06T20:09:05;1.25;;;0.95;;
45940;SDS011;31858;46.008;8.978;2024-03-06T20:19:08;1.20;;;0.80;;
45940;SDS011;31858;46.008;8.978;2024-03-06T20:29:11;5.15;;;3.13;;
45940;SDS011;31858;46.008;8.978;2024-03-06T20:39:14;2.15;;;0.98;;
45940;SDS011;31858;46.008;8.978;2024-03-06T20:49:17;1.95;;;1.25;;
45940;SDS011;31858;46.008;8.978;2024-03-06T20:59:21;2.25;;;1.35;;
45940;SDS011;31858;46.008;8.978;2024-03-06T21:09:24;1.45;;;1.25;;
45940;SDS011;31858;46.008;8.978;2024-03-06T21:19:26;1.17;;;1.08;;
45940;SDS011;31858;46.008;8.978;2024-03-06T21:29:29;1.67;;;1.10;;
45940;SDS011;31858;46.008;8.978;2024-03-06T21:39:31;1.13;;;0.98;;
45940;SDS011;31858;46.008;8.978;2024-03-06T21:49:33;1.27;;;0.95;;
45940;SDS011;31858;46.008;8.978;2024-03-06T21:59:35;1.63;;;1.20;;
45940;SDS011;31858;46.008;8.978;2024-03-06T22:09:38;2.35;;;1.20;;
45940;SDS011;31858;46.008;8.978;2024-03-06T22:19:40;1.48;;;0.80;;
45940;SDS011;31858;46.008;8.978;2024-03-06T22:29:43;1.58;;;1.27;;
45940;SDS011;31858;46.008;8.978;2024-03-06T22:39:44;1.30;;;1.20;;
45940;SDS011;31858;46.008;8.978;2024-03-06T22:49:47;1.45;;;1.35;;
45940;SDS011;31858;46.008;8.978;2024-03-06T22:59:49;1.58;;;1.38;;
45940;SDS011;31858;46.008;8.978;2024-03-06T23:09:53;3.60;;;1.77;;
45940;SDS011;31858;46.008;8.978;2024-03-06T23:19:54;3.70;;;2.13;;
45940;SDS011;31858;46.008;8.978;2024-03-06T23:29:57;3.38;;;2.67;;
45940;SDS011;31858;46.008;8.978;2024-03-06T23:40:01;2.83;;;1.90;;
45940;SDS011;31858;46.008;8.978;2024-03-06T23:50:07;4.78;;;2.00;;
